Time;durP1;ratioP1;P1;durP2;ratioP2;P2;SDS_P1;SDS_P2;PMS_P1;PMS_P2;Temp;Humidity;BMP_temperature;BMP_pressure;BME280_temperature;BME280_humidity;BME280_pressure;Samples;Min_cycle;Max_cycle;Signal;HPM_P1;HPM_P2
2022/06/04 00:00:19;;;;;;;23.20;21.37;;;;;;;16.90;100.00;98079.09;5137765;27;20694;-68
2022/06/04 00:02:48;;;;;;;22.30;20.47;;;;;;;16.93;100.00;98075.91;5138050;27;20209;-68
2022/06/04 00:05:18;;;;;;;20.93;19.17;;;;;;;16.96;100.00;98078.09;5138036;27;20211;-68
2022/06/04 00:07:45;;;;;;;20.57;18.77;;;;;;;16.85;100.00;98074.53;5137846;27;20238;-68
2022/06/04 00:15:48;;;;;;;21.27;19.40;;;;;;;16.87;100.00;98074.28;5137926;27;20186;-68
2022/06/04 00:18:15;;;;;;;22.13;20.23;;;;;;;16.82;100.00;98068.88;5137626;27;20667;-68
2022/06/04 00:20:42;;;;;;;22.33;20.33;;;;;;;16.81;100.00;98069.91;5137713;27;20198;-68
2022/06/04 00:23:10;;;;;;;20.17;18.40;;;;;;;16.86;100.00;98073.47;5137636;27;20212;-69
2022/06/04 00:25:39;;;;;;;20.60;18.70;;;;;;;16.74;100.00;98077.41;5137559;27;20288;-68
2022/06/04 00:28:07;;;;;;;20.17;18.43;;;;;;;16.75;100.00;98085.22;5137228;27;20225;-68
2022/06/04 00:30:35;;;;;;;20.43;18.63;;;;;;;16.69;100.00;98080.06;5137177;27;20564;-68
2022/06/04 00:33:01;;;;;;;22.20;20.30;;;;;;;16.69;100.00;98082.72;5137470;27;20285;-68
2022/06/04 00:35:28;;;;;;;22.20;20.40;;;;;;;16.70;100.00;98077.09;5136042;27;20645;-68
2022/06/04 00:37:55;;;;;;;23.67;21.63;;;;;;;16.74;100.00;98072.03;5136952;27;20667;-68
2022/06/04 00:40:51;;;;;;;23.67;21.50;;;;;;;16.69;100.00;98069.31;5137309;27;20213;-68
2022/06/04 00:43:19;;;;;;;23.50;21.40;;;;;;;16.68;100.00;98062.31;5137274;27;20209;-68
2022/06/04 00:46:23;;;;;;;24.13;21.80;;;;;;;16.66;100.00;98065.28;5137138;27;20208;-68
2022/06/04 00:48:50;;;;;;;21.70;19.63;;;;;;;16.61;100.00;98065.19;5137062;27;20309;-68
2022/06/04 00:51:16;;;;;;;20.40;18.60;;;;;;;16.50;100.00;98068.88;5137171;27;20285;-68
2022/06/04 00:53:43;;;;;;;21.43;19.63;;;;;;;16.49;100.00;98069.13;5136734;27;20297;-68
2022/06/04 00:56:19;;;;;;;20.27;18.57;;;;;;;16.49;100.00;98069.13;5137037;27;20241;-68
2022/06/04 00:59:05;;;;;;;20.80;18.67;;;;;;;16.42;100.00;98069.34;5136568;27;20672;-68
2022/06/04 01:01:50;;;;;;;18.67;17.20;;;;;;;16.50;100.00;98078.78;5136951;27;20182;-68
2022/06/04 01:04:48;;;;;;;18.03;16.63;;;;;;;16.54;100.00;98077.22;5102945;27;20554;-68
2022/06/04 01:07:27;;;;;;;18.80;16.97;;;;;;;16.49;100.00;98077.19;5136700;27;20313;-68
2022/06/04 01:10:02;;;;;;;18.97;17.50;;;;;;;16.40;100.00;98070.66;5136764;27;20205;-68
2022/06/04 01:13:03;;;;;;;18.73;17.13;;;;;;;16.38;100.00;98078.94;5136384;27;20202;-68
2022/06/04 01:15:38;;;;;;;18.50;16.77;;;;;;;16.32;100.00;98066.53;5136398;27;20625;-68
2022/06/04 01:18:13;;;;;;;16.67;15.37;;;;;;;16.38;100.00;98078.16;5136571;27;20317;-69
2022/06/04 01:20:53;;;;;;;17.73;16.23;;;;;;;16.30;100.00;98082.09;5118394;27;20281;-68
2022/06/04 01:23:28;;;;;;;17.63;16.20;;;;;;;16.34;100.00;98077.84;5118400;27;20194;-68
2022/06/04 01:26:13;;;;;;;18.60;17.00;;;;;;;16.29;100.00;98068.94;5136443;27;20187;-68
2022/06/04 01:28:48;;;;;;;16.97;15.67;;;;;;;16.27;100.00;98066.50;5136334;27;20652;-68
2022/06/04 01:31:21;;;;;;;18.80;17.27;;;;;;;16.32;100.00;98079.16;5118946;27;20186;-68
2022/06/04 01:33:54;;;;;;;18.47;16.67;;;;;;;16.28;100.00;98075.38;5136336;27;20209;-68
2022/06/04 01:36:27;;;;;;;18.97;17.33;;;;;;;16.22;100.00;98069.16;5118104;27;20190;-69
2022/06/04 01:39:23;;;;;;;17.67;16.13;;;;;;;16.24;100.00;98063.53;5118004;27;20317;-68
2022/06/04 01:41:58;;;;;;;18.27;16.77;;;;;;;16.25;100.00;98079.38;5133657;27;20297;-68
2022/06/04 01:44:32;;;;;;;18.37;16.70;;;;;;;16.29;100.00;98085.03;5118173;27;20273;-68
2022/06/04 01:47:04;;;;;;;20.43;18.80;;;;;;;16.25;100.00;98074.00;5135858;27;20211;-68
2022/06/04 01:49:35;;;;;;;20.73;19.00;;;;;;;16.24;100.00;98071.56;5135659;27;20226;-68
2022/06/04 01:52:14;;;;;;;20.83;19.07;;;;;;;16.24;100.00;98071.56;5135959;27;20190;-69
2022/06/04 01:54:49;;;;;;;20.00;18.33;;;;;;;16.24;100.00;98080.41;5135738;27;20661;-68
2022/06/04 01:57:40;;;;;;;21.63;19.70;;;;;;;16.26;100.00;98072.94;5135783;27;20278;-68
2022/06/04 02:00:15;;;;;;;20.23;18.53;;;;;;;16.27;100.00;98076.41;5124601;27;20661;-68
2022/06/04 02:02:48;;;;;;;21.00;19.17;;;;;;;16.29;100.00;98075.09;5135433;27;20631;-68
2022/06/04 02:05:22;;;;;;;20.77;19.10;;;;;;;16.28;100.00;98083.44;5117516;27;20243;-68
2022/06/04 02:07:52;;;;;;;21.17;19.57;;;;;;;16.18;100.00;98081.44;5135506;27;20234;-68
2022/06/04 02:10:25;;;;;;;20.97;19.10;;;;;;;16.17;100.00;98074.47;5100953;27;20194;-68
2022/06/04 02:12:54;;;;;;;20.67;18.90;;;;;;;16.16;100.00;98077.41;5135614;27;20201;-68
2022/06/04 02:15:26;;;;;;;19.93;18.10;;;;;;;16.16;100.00;98075.53;5135464;27;20289;-68
2022/06/04 02:17:57;;;;;;;20.57;18.80;;;;;;;16.16;100.00;98074.72;5135335;27;20299;-68
2022/06/04 02:20:24;;;;;;;19.80;18.13;;;;;;;16.10;100.00;98067.69;5135454;27;20187;-68
2022/06/04 02:22:51;;;;;;;18.63;17.23;;;;;;;16.09;100.00;98076.78;5135316;27;20198;-68
2022/06/04 02:25:17;;;;;;;17.60;16.20;;;;;;;16.06;100.00;98067.38;5135014;27;20657;-68
2022/06/04 02:27:45;;;;;;;17.70;16.30;;;;;;;16.00;100.00;98064.88;5134780;27;20700;-68
2022/06/04 02:30:13;;;;;;;17.63;16.13;;;;;;;15.94;100.00;98060.53;5134844;27;20564;-68
2022/06/04 02:32:57;;;;;;;18.70;16.83;;;;;;;15.91;100.00;98059.19;5135183;27;20204;-68
2022/06/04 02:35:35;;;;;;;19.53;17.83;;;;;;;16.00;100.00;98062.19;5135138;27;20290;-68
2022/06/04 02:38:28;;;;;;;19.53;17.83;;;;;;;16.00;100.00;98065.72;5134697;27;20591;-68
2022/06/04 02:41:08;;;;;;;18.60;17.10;;;;;;;15.98;100.00;98067.03;5100490;27;20269;-68
2022/06/04 02:43:43;;;;;;;18.97;17.17;;;;;;;15.89;100.00;98065.84;5135075;27;20556;-68
2022/06/04 02:46:34;;;;;;;19.07;17.57;;;;;;;15.86;100.00;98066.34;5116717;27;20300;-68
2022/06/04 02:49:17;;;;;;;18.57;16.93;;;;;;;15.91;100.00;98069.91;5134549;27;20592;-68
2022/06/04 02:51:48;;;;;;;19.23;17.50;;;;;;;15.84;100.00;98060.44;5134543;27;20186;-68
2022/06/04 02:54:22;;;;;;;17.13;15.83;;;;;;;15.89;100.00;98047.09;5134698;27;20220;-69
2022/06/04 02:56:51;;;;;;;18.30;16.70;;;;;;;15.86;100.00;98047.56;5134862;27;20282;-68
2022/06/04 02:59:20;;;;;;;18.40;16.90;;;;;;;15.79;100.00;98049.66;5133784;27;20649;-69
2022/06/04 03:01:51;;;;;;;17.80;16.27;;;;;;;15.85;100.00;98049.47;5134411;27;20227;-69
2022/06/04 03:04:18;;;;;;;17.90;16.33;;;;;;;15.88;100.00;98051.63;5135219;27;20274;-68
2022/06/04 03:06:44;;;;;;;18.73;17.17;;;;;;;15.78;100.00;98051.53;5134477;27;20588;-68
2022/06/04 03:09:14;;;;;;;18.17;16.77;;;;;;;15.82;100.00;98058.00;5134978;27;20225;-69
2022/06/04 03:11:50;;;;;;;17.67;16.17;;;;;;;15.85;100.00;98046.78;5134266;27;20635;-68
2022/06/04 03:14:19;;;;;;;17.60;16.20;;;;;;;15.86;100.00;98048.41;5134571;28;20193;-68
2022/06/04 03:16:48;;;;;;;17.87;16.57;;;;;;;15.90;100.00;98049.53;5134393;28;20219;-68
2022/06/04 03:19:15;;;;;;;17.47;15.97;;;;;;;15.88;100.00;98048.16;5134032;28;20230;-68
2022/06/04 03:21:43;;;;;;;17.80;16.10;;;;;;;15.89;100.00;98047.91;5134474;28;20240;-68
2022/06/04 03:24:11;;;;;;;18.77;17.10;;;;;;;15.86;100.00;98055.63;5135263;28;20218;-68
2022/06/04 03:26:38;;;;;;;17.20;15.70;;;;;;;15.92;100.00;98041.22;5134367;28;20234;-68
2022/06/04 03:29:05;;;;;;;17.63;16.03;;;;;;;15.92;100.00;98054.63;5134544;28;20310;-69
2022/06/04 03:31:32;;;;;;;16.93;15.53;;;;;;;15.94;100.00;98066.72;5134055;28;20202;-68
2022/06/04 03:33:58;;;;;;;16.03;14.40;;;;;;;15.97;100.00;98052.78;5134071;28;20646;-68
2022/06/04 03:36:26;;;;;;;16.17;14.77;;;;;;;15.93;100.00;98050.88;5134248;28;20213;-68
2022/06/04 03:39:00;;;;;;;16.37;14.83;;;;;;;15.96;100.00;98064.59;5134084;28;20218;-68
2022/06/04 03:41:26;;;;;;;16.00;14.63;;;;;;;15.97;100.00;98062.72;5134814;28;20244;-68
2022/06/04 03:43:53;;;;;;;14.70;13.50;;;;;;;15.94;100.00;98077.44;5133884;28;20198;-68
2022/06/04 03:46:24;;;;;;;14.67;12.93;;;;;;;15.98;100.00;98088.47;5134088;28;20240;-68
2022/06/04 03:48:51;;;;;;;13.80;12.50;;;;;;;15.98;100.00;98093.84;5133927;28;20219;-68
2022/06/04 03:51:18;;;;;;;15.30;12.57;;;;;;;15.95;100.00;98092.47;5134146;28;20289;-69
2022/06/04 03:53:44;;;;;;;14.50;13.23;;;;;;;15.98;100.00;98096.53;5133857;28;20206;-69
2022/06/04 03:56:11;;;;;;;13.10;12.00;;;;;;;15.97;100.00;98109.09;5134215;28;20202;-68
2022/06/04 03:58:38;;;;;;;14.10;12.87;;;;;;;15.97;100.00;98102.94;5134097;28;20215;-68
2022/06/04 04:01:24;;;;;;;13.03;11.83;;;;;;;16.00;100.00;98110.47;5133819;28;20297;-68
2022/06/04 04:03:51;;;;;;;13.70;12.50;;;;;;;15.99;100.00;98101.63;5133760;28;20628;-68
2022/06/04 04:06:21;;;;;;;13.30;12.13;;;;;;;16.04;100.00;98103.53;5133787;28;20203;-68
2022/06/04 04:08:47;;;;;;;11.47;10.47;;;;;;;16.09;100.00;98104.41;5133809;27;20762;-69
2022/06/04 04:11:17;;;;;;;14.33;11.40;;;;;;;16.11;100.00;98091.56;5137764;27;20203;-68
2022/06/04 04:13:44;;;;;;;12.00;10.83;;;;;;;16.16;100.00;98088.13;5137763;27;20217;-68
2022/06/04 04:16:12;;;;;;;12.47;11.17;;;;;;;16.18;100.00;98096.72;5137447;27;20771;-68
2022/06/04 04:18:39;;;;;;;10.20;9.30;;;;;;;16.26;100.00;98088.22;5137643;27;20301;-68
2022/06/04 04:21:09;;;;;;;11.20;10.10;;;;;;;16.33;100.00;98083.47;5137392;27;20760;-68
2022/06/04 04:23:36;;;;;;;10.80;9.73;;;;;;;16.33;100.00;98073.53;5137943;27;20220;-68
2022/06/04 04:26:04;;;;;;;10.70;9.80;;;;;;;16.33;100.00;98080.78;5137651;27;20213;-68
2022/06/04 04:28:31;;;;;;;10.63;9.63;;;;;;;16.33;100.00;98078.09;5137409;27;20303;-68
2022/06/04 04:30:58;;;;;;;10.70;9.70;;;;;;;16.34;100.00;98077.84;5137570;27;20297;-68
2022/06/04 04:33:25;;;;;;;10.30;9.40;;;;;;;16.37;100.00;98081.91;5137500;27;20285;-68
2022/06/04 04:35:51;;;;;;;10.10;8.97;;;;;;;16.38;100.00;98065.53;5137418;27;20206;-69
2022/06/04 04:38:21;;;;;;;10.77;9.73;;;;;;;16.44;100.00;98075.28;5136990;27;20796;-68
2022/06/04 04:40:47;;;;;;;10.20;9.30;;;;;;;16.48;100.00;98083.63;5137226;27;20290;-68
2022/06/04 04:43:14;;;;;;;10.83;9.67;;;;;;;16.50;100.00;98081.47;5137128;27;20238;-68
2022/06/04 04:45:43;;;;;;;10.03;9.07;;;;;;;16.53;100.00;98065.69;5136776;27;20206;-68
2022/06/04 04:48:11;;;;;;;9.53;8.63;;;;;;;16.53;100.00;98065.69;5136564;27;20763;-68
2022/06/04 04:50:40;;;;;;;10.03;8.50;;;;;;;16.61;100.00;98062.50;5137042;27;20294;-69
2022/06/04 04:53:11;;;;;;;9.70;8.70;;;;;;;16.70;100.00;98066.34;5136739;27;20217;-68
2022/06/04 04:55:37;;;;;;;9.73;8.70;;;;;;;16.81;100.00;98068.06;5137714;27;20278;-68
2022/06/04 04:58:05;;;;;;;9.60;8.67;;;;;;;16.97;100.00;98066.28;5136541;27;20229;-68
2022/06/04 05:00:32;;;;;;;9.20;8.33;;;;;;;16.95;100.00;98063.03;5136581;27;20295;-68
2022/06/04 05:03:00;;;;;;;9.43;8.53;;;;;;;17.06;100.00;98070.88;5136876;27;20293;-69
2022/06/04 05:05:27;;;;;;;9.03;8.13;;;;;;;17.28;100.00;98073.44;5136825;27;20203;-68
2022/06/04 05:07:54;;;;;;;9.70;8.80;;;;;;;17.16;100.00;98075.53;5137059;27;20319;-68
2022/06/04 05:10:20;;;;;;;9.63;8.70;;;;;;;17.20;100.00;98085.47;5136450;27;20198;-69
2022/06/04 05:12:46;;;;;;;9.13;8.37;;;;;;;17.30;100.00;98104.38;5136760;27;20212;-68
2022/06/04 05:15:13;;;;;;;9.20;8.30;;;;;;;17.21;100.00;98105.94;5136611;27;20199;-68
2022/06/04 05:17:41;;;;;;;10.07;8.47;;;;;;;17.23;100.00;98108.34;5136523;27;20324;-68
2022/06/04 05:20:08;;;;;;;9.47;8.63;;;;;;;17.15;100.00;98117.69;5136437;27;20214;-69
2022/06/04 05:22:34;;;;;;;9.50;8.70;;;;;;;17.23;100.00;98111.84;5135675;27;20293;-68
2022/06/04 05:25:01;;;;;;;8.80;8.10;;;;;;;17.24;100.00;98113.44;5136313;27;20203;-68
2022/06/04 05:27:28;;;;;;;9.37;8.47;;;;;;;17.29;100.00;98115.38;5136727;27;20222;-69
2022/06/04 05:29:54;;;;;;;9.10;8.40;;;;;;;17.28;100.00;98127.97;5136029;27;20676;-69
2022/06/04 05:32:20;;;;;;;8.83;8.03;;;;;;;17.27;100.00;98133.63;5136278;27;20237;-68
2022/06/04 05:34:47;;;;;;;9.63;8.63;;;;;;;17.24;100.00;98132.25;5136157;27;20199;-68
2022/06/04 05:37:13;;;;;;;10.20;9.30;;;;;;;17.29;100.00;98129.59;5135862;27;20198;-69
2022/06/04 05:39:40;;;;;;;9.10;8.30;;;;;;;17.27;100.00;98123.69;5135899;27;20294;-69
2022/06/04 05:42:07;;;;;;;8.93;8.20;;;;;;;17.25;100.00;98128.53;5135583;27;20293;-68
2022/06/04 05:44:34;;;;;;;9.97;9.07;;;;;;;17.30;100.00;98135.78;5135774;27;20202;-68
2022/06/04 05:47:00;;;;;;;9.80;8.87;;;;;;;17.31;100.00;98146.28;5135731;27;20203;-68
2022/06/04 05:49:28;;;;;;;9.57;8.67;;;;;;;17.37;100.00;98147.94;5135608;27;20222;-68
2022/06/04 05:51:54;;;;;;;9.50;8.63;;;;;;;17.50;100.00;98147.50;5136131;27;20213;-69
2022/06/04 05:54:21;;;;;;;9.63;8.83;;;;;;;17.42;100.00;98136.44;5117031;27;20253;-68
2022/06/04 05:56:49;;;;;;;8.77;7.97;;;;;;;17.45;100.00;98150.16;5135412;27;20293;-68
2022/06/04 05:59:19;;;;;;;8.70;7.80;;;;;;;17.45;100.00;98149.34;5135611;27;20329;-69
2022/06/04 06:01:46;;;;;;;9.90;9.00;;;;;;;17.38;100.00;98162.97;5135522;27;20202;-68
2022/06/04 06:04:15;;;;;;;9.50;8.70;;;;;;;17.40;100.00;98173.50;5135071;27;20212;-68
2022/06/04 06:06:47;;;;;;;9.53;8.70;;;;;;;17.30;100.00;98206.47;5135511;27;20293;-69
2022/06/04 06:09:16;;;;;;;9.43;8.50;;;;;;;17.22;100.00;98219.56;5135359;27;20313;-68
2022/06/04 06:11:44;;;;;;;10.93;9.83;;;;;;;17.12;100.00;98222.19;5135530;27;20203;-68
2022/06/04 06:14:12;;;;;;;11.63;10.00;;;;;;;17.04;100.00;98239.56;5135046;27;20569;-68
2022/06/04 06:16:44;;;;;;;17.33;11.73;;;;;;;17.04;100.00;98244.13;5135048;27;20666;-68
2022/06/04 06:19:12;;;;;;;7.97;7.20;;;;;;;17.16;100.00;98250.97;5135199;27;20313;-68
2022/06/04 06:21:38;;;;;;;8.87;7.13;;;;;;;17.14;100.00;98261.16;5135130;27;20198;-68
2022/06/04 06:24:08;;;;;;;8.53;7.83;;;;;;;17.15;100.00;98276.19;5134658;27;20567;-68
2022/06/04 06:26:41;;;;;;;8.87;8.10;;;;;;;17.10;100.00;98278.84;5134988;27;20206;-68
2022/06/04 06:29:08;;;;;;;8.60;7.63;;;;;;;17.15;100.00;98278.09;5134910;27;20226;-69
2022/06/04 06:31:35;;;;;;;9.47;8.67;;;;;;;17.09;100.00;98279.91;5134638;27;20289;-68
2022/06/04 06:34:02;;;;;;;12.83;8.67;;;;;;;17.10;100.00;98270.78;5134085;27;20245;-68
2022/06/04 06:36:29;;;;;;;10.93;9.87;;;;;;;17.10;100.00;98275.38;5134511;27;20198;-68
2022/06/04 06:38:56;;;;;;;12.23;11.00;;;;;;;17.11;100.00;98275.13;5134676;27;20214;-68
2022/06/04 06:41:24;;;;;;;11.23;10.10;;;;;;;17.19;100.00;98271.94;5134721;27;20206;-69
2022/06/04 06:43:51;;;;;;;13.23;11.83;;;;;;;17.20;100.00;98265.50;5134786;27;20289;-68
2022/06/04 06:46:26;;;;;;;14.93;12.37;;;;;;;17.25;100.00;98251.31;5134760;27;20290;-68
2022/06/04 06:48:58;;;;;;;16.33;12.57;;;;;;;17.32;100.00;98231.22;5134803;27;20236;-68
2022/06/04 06:51:32;;;;;;;15.37;11.63;;;;;;;17.29;100.00;98212.91;5134438;27;20273;-68
2022/06/04 06:53:59;;;;;;;19.30;13.17;;;;;;;17.40;100.00;98205.75;5134182;27;20297;-68
2022/06/04 06:56:32;;;;;;;14.73;11.53;;;;;;;17.49;100.00;98206.91;5134854;27;20209;-68
2022/06/04 06:59:00;;;;;;;12.70;11.43;;;;;;;17.54;100.00;98202.38;5134491;27;20218;-68
2022/06/04 07:01:28;;;;;;;13.57;12.13;;;;;;;17.66;100.00;98189.53;5134187;27;20297;-68
2022/06/04 07:03:56;;;;;;;13.77;11.33;;;;;;;17.69;100.00;98167.50;5134287;27;20672;-68
2022/06/04 07:06:38;;;;;;;13.60;10.57;;;;;;;17.74;100.00;98147.91;5134278;27;20206;-68
2022/06/04 07:09:08;;;;;;;12.70;10.20;;;;;;;17.71;100.00;98134.97;5135196;27;20230;-68
2022/06/04 07:11:35;;;;;;;12.73;11.43;;;;;;;17.69;100.00;98145.97;5134600;27;20202;-68
2022/06/04 07:14:02;;;;;;;12.93;11.67;;;;;;;17.67;100.00;98158.88;5134567;27;20305;-68
2022/06/04 07:16:28;;;;;;;12.10;10.70;;;;;;;17.49;100.00;98183.53;5134605;28;20225;-68
2022/06/04 07:18:55;;;;;;;12.30;11.03;;;;;;;17.53;100.00;98189.19;5134407;28;20214;-68
2022/06/04 07:21:21;;;;;;;13.90;12.43;;;;;;;17.67;100.00;98196.53;5134435;28;20288;-68
2022/06/04 07:23:48;;;;;;;12.10;10.70;;;;;;;17.74;100.00;98199.78;5134301;28;20289;-68
2022/06/04 07:26:15;;;;;;;11.73;10.73;;;;;;;17.85;100.00;98193.41;5134134;28;20230;-68
2022/06/04 07:28:42;;;;;;;12.73;11.07;;;;;;;18.01;100.00;98207.72;5133674;28;20228;-68
2022/06/04 07:31:11;;;;;;;13.17;11.47;;;;;;;18.22;100.00;98212.94;5134181;28;20207;-68
2022/06/04 07:33:38;;;;;;;14.83;13.20;;;;;;;18.41;100.00;98213.31;5134160;28;20234;-68
2022/06/04 07:36:05;;;;;;;12.80;11.73;;;;;;;18.54;100.00;98202.81;5134179;28;20207;-68
2022/06/04 07:38:31;;;;;;;15.70;13.90;;;;;;;18.64;100.00;98197.47;5134229;28;20218;-68
2022/06/04 07:40:58;;;;;;;16.37;12.77;;;;;;;18.95;100.00;98196.41;5133716;28;20568;-67
2022/06/04 07:43:24;;;;;;;13.20;12.00;;;;;;;18.69;100.00;98192.06;5133667;27;20202;-68
2022/06/04 07:45:51;;;;;;;13.50;12.07;;;;;;;18.98;100.00;98190.50;5137896;27;20289;-68
2022/06/04 07:48:17;;;;;;;13.27;11.50;;;;;;;18.98;100.00;98195.91;5137901;27;20580;-68
2022/06/04 07:50:43;;;;;;;11.90;10.80;;;;;;;18.90;100.00;98190.22;5138878;27;20301;-68
2022/06/04 07:53:10;;;;;;;12.60;11.60;;;;;;;18.58;100.00;98187.75;5137988;27;20301;-68
2022/06/04 07:55:40;;;;;;;13.70;12.40;;;;;;;18.61;100.00;98187.25;5138097;27;20269;-68
2022/06/04 07:58:07;;;;;;;15.23;13.77;;;;;;;18.63;100.00;98187.78;5138316;27;20223;-68
2022/06/04 08:00:37;;;;;;;12.67;11.67;;;;;;;18.61;100.00;98181.03;5137934;27;20289;-68
2022/06/04 08:03:03;;;;;;;14.27;13.03;;;;;;;19.03;100.00;98178.91;5137895;27;20289;-68
2022/06/04 08:05:30;;;;;;;12.80;11.73;;;;;;;18.97;100.00;98183.50;5137908;27;20221;-68
2022/06/04 08:07:56;;;;;;;13.50;12.40;;;;;;;19.37;100.00;98180.78;5137759;27;20233;-68
2022/06/04 08:10:22;;;;;;;13.30;11.97;;;;;;;19.30;100.00;98182.97;5137656;27;20206;-68
2022/06/04 08:12:49;;;;;;;14.47;13.27;;;;;;;19.27;100.00;98188.91;5137363;27;20206;-68
2022/06/04 08:15:15;;;;;;;12.93;11.80;;;;;;;19.10;100.00;98196.41;5137414;27;20635;-68
2022/06/04 08:17:42;;;;;;;13.63;12.53;;;;;;;19.37;100.00;98204.28;5137584;27;20218;-68
2022/06/04 08:20:09;;;;;;;14.20;12.80;;;;;;;19.54;100.00;98210.19;5137359;27;20304;-69
2022/06/04 08:22:35;;;;;;;14.27;12.87;;;;;;;19.58;100.00;98207.75;5137505;27;20275;-69
2022/06/04 08:25:02;;;;;;;14.17;12.97;;;;;;;19.59;100.00;98213.66;5137252;27;20564;-68
2022/06/04 08:27:29;;;;;;;13.50;12.30;;;;;;;19.55;100.00;98222.59;5137005;27;20202;-68
2022/06/04 08:29:55;;;;;;;13.97;12.87;;;;;;;19.57;100.00;98230.41;5137314;27;20554;-68
2022/06/04 08:32:21;;;;;;;13.90;12.77;;;;;;;19.44;100.00;98229.88;5137271;27;20206;-68
2022/06/04 08:34:48;;;;;;;14.03;12.83;;;;;;;19.52;100.00;98225.81;5136890;27;20208;-68
2022/06/04 08:37:14;;;;;;;14.27;12.93;;;;;;;19.38;100.00;98225.56;5136952;27;20289;-68
2022/06/04 08:39:41;;;;;;;15.27;13.87;;;;;;;19.55;100.00;98222.59;5136940;27;20287;-68
2022/06/04 08:42:24;;;;;;;14.40;13.20;;;;;;;19.63;100.00;98208.56;5136632;27;20206;-68
2022/06/04 08:44:54;;;;;;;14.23;13.03;;;;;;;19.62;100.00;98208.81;5118893;27;20553;-68
2022/06/04 08:47:37;;;;;;;14.13;12.87;;;;;;;19.77;100.00;98213.09;5136570;27;20206;-68
2022/06/04 08:50:25;;;;;;;13.97;12.77;;;;;;;20.08;100.00;98215.69;5136760;27;20298;-68
2022/06/04 08:53:01;;;;;;;13.93;12.60;;;;;;;20.07;100.00;98211.41;5136868;27;20201;-68
2022/06/04 08:59:06;;;;;;;12.97;11.77;;;;;;;20.15;100.00;98221.63;5136806;27;20205;-68
2022/06/04 09:01:36;;;;;;;12.27;11.27;;;;;;;20.22;100.00;98222.97;5120960;27;20194;-68
2022/06/04 09:04:27;;;;;;;11.33;10.40;;;;;;;20.52;100.00;98220.13;5136661;27;20203;-68
2022/06/04 09:07:11;;;;;;;13.27;11.97;;;;;;;20.25;100.00;98229.72;5136329;27;20198;-69
2022/06/04 09:10:07;;;;;;;11.27;10.27;;;;;;;20.35;100.00;98224.25;5137064;27;20230;-69
2022/06/04 09:12:56;;;;;;;12.03;11.07;;;;;;;20.41;100.00;98221.25;5133530;27;20567;-69
2022/06/04 09:15:36;;;;;;;11.93;10.83;;;;;;;20.56;100.00;98217.66;5136408;27;20214;-68
2022/06/04 09:18:17;;;;;;;12.07;11.13;;;;;;;20.90;100.00;98229.34;5136184;27;20318;-69
2022/06/04 09:20:47;;;;;;;11.83;10.67;;;;;;;21.26;100.00;98241.56;5136172;27;20186;-69
2022/06/04 09:23:19;;;;;;;10.60;9.70;;;;;;;21.63;97.84;98239.88;5136301;27;20440;-69
2022/06/04 09:25:45;;;;;;;10.37;9.47;;;;;;;21.59;94.18;98238.84;5136413;27;20194;-69
2022/06/04 09:28:31;;;;;;;11.80;10.53;;;;;;;21.79;91.87;98235.94;5135767;27;20227;-69
2022/06/04 09:31:07;;;;;;;10.03;9.20;;;;;;;22.15;94.08;98237.19;5136060;27;20277;-69
2022/06/04 09:33:47;;;;;;;11.15;10.15;;;;;;;22.25;94.67;98236.25;5136083;27;20280;-69
2022/06/04 09:36:19;;;;;;;10.80;9.80;;;;;;;22.02;95.84;98243.28;5136241;27;20186;-69
2022/06/04 09:39:00;;;;;;;11.18;10.18;;;;;;;21.98;90.48;98252.28;5118221;27;20310;-69
2022/06/04 09:41:29;;;;;;;11.75;10.68;;;;;;;21.71;95.39;98254.72;5135770;27;20633;-69
2022/06/04 09:44:07;;;;;;;12.48;11.38;;;;;;;22.13;93.61;98254.81;5135832;27;20632;-69
2022/06/04 09:46:34;;;;;;;12.23;11.02;;;;;;;21.56;95.92;98246.72;5135771;27;20202;-69
2022/06/04 09:49:12;;;;;;;11.77;10.87;;;;;;;21.16;98.51;98249.75;5136121;27;20317;-69
2022/06/04 09:51:43;;;;;;;10.33;9.53;;;;;;;21.14;96.10;98252.72;5135779;27;20200;-70
2022/06/04 09:54:32;;;;;;;11.67;10.70;;;;;;;21.03;99.10;98261.97;5135503;27;20222;-68
2022/06/04 09:57:03;;;;;;;12.10;11.10;;;;;;;20.92;100.00;98263.16;5135694;27;20203;-68
2022/06/04 09:59:32;;;;;;;12.43;11.33;;;;;;;20.95;97.65;98276.13;5135347;27;20219;-69
2022/06/04 10:02:13;;;;;;;12.33;11.33;;;;;;;20.85;99.80;98278.03;5117444;27;20293;-69
2022/06/04 10:04:47;;;;;;;11.97;11.00;;;;;;;20.96;96.33;98279.59;5135431;27;20186;-69
2022/06/04 10:07:20;;;;;;;13.70;12.50;;;;;;;20.72;98.22;98286.75;5135587;27;20213;-68
2022/06/04 10:09:58;;;;;;;13.90;12.53;;;;;;;20.68;100.00;98296.50;5135363;27;20207;-69
2022/06/04 10:15:37;;;;;;;13.60;12.20;;;;;;;20.83;98.48;98299.09;5135216;27;20239;-68
2022/06/04 10:18:15;;;;;;;12.60;11.43;;;;;;;20.82;97.72;98306.41;5135125;27;20226;-68
2022/06/04 10:20:51;;;;;;;10.87;9.97;;;;;;;20.84;95.55;98308.84;5135204;27;20194;-69
2022/06/04 10:23:18;;;;;;;9.77;8.97;;;;;;;20.83;95.86;98318.03;5135210;27;20281;-69
2022/06/04 10:26:10;;;;;;;9.73;8.70;;;;;;;20.70;97.00;98324.84;5134664;27;20744;-68
2022/06/04 10:28:59;;;;;;;8.50;7.77;;;;;;;20.48;91.83;98316.28;5117316;27;20317;-68
2022/06/04 10:31:28;;;;;;;8.93;8.20;;;;;;;20.34;93.62;98306.38;5085116;27;20298;-68
2022/06/04 10:34:36;;;;;;;8.17;7.47;;;;;;;20.29;93.34;98303.66;5134646;27;20560;-68
2022/06/04 10:37:30;;;;;;;7.60;6.93;;;;;;;20.31;90.93;98320.41;5099418;27;20293;-68
2022/06/04 10:40:22;;;;;;;7.80;7.10;;;;;;;20.22;92.70;98325.56;5134844;27;20289;-68
2022/06/04 10:43:04;;;;;;;8.87;8.10;;;;;;;20.35;93.90;98308.75;5134854;27;20278;-68
2022/06/04 10:46:03;;;;;;;12.10;10.97;;;;;;;20.37;98.68;98309.31;5134783;27;20209;-69
2022/06/04 10:48:59;;;;;;;11.37;10.27;;;;;;;20.63;91.95;98310.03;5119677;27;20312;-68
2022/06/04 10:51:40;;;;;;;10.53;9.73;;;;;;;20.76;93.54;98315.63;5134660;27;20191;-69
2022/06/04 10:54:27;;;;;;;13.10;12.03;;;;;;;20.73;95.76;98334.28;5116154;27;20206;-68
2022/06/04 10:56:57;;;;;;;12.17;11.23;;;;;;;20.82;95.78;98338.84;5134327;27;20191;-68
2022/06/04 10:59:32;;;;;;;14.57;13.37;;;;;;;20.73;95.56;98339.69;5135138;27;20767;-68
2022/06/04 11:02:24;;;;;;;14.83;13.63;;;;;;;20.39;96.79;98341.44;5134503;27;20277;-68
2022/06/04 11:04:55;;;;;;;13.07;11.97;;;;;;;20.47;98.12;98336.28;5134480;27;20183;-68
2022/06/04 11:07:38;;;;;;;15.20;13.97;;;;;;;20.48;98.40;98342.50;5134150;27;20289;-68
2022/06/04 11:10:14;;;;;;;15.90;14.37;;;;;;;20.36;99.41;98337.41;5134172;27;20581;-68
2022/06/04 11:12:48;;;;;;;15.93;14.23;;;;;;;20.35;99.90;98338.47;5116939;28;20182;-68
2022/06/04 11:15:26;;;;;;;15.83;14.73;;;;;;;20.56;100.00;98333.81;5134154;27;20269;-68
2022/06/04 11:18:12;;;;;;;16.63;14.97;;;;;;;20.39;100.00;98327.94;5116534;28;20229;-69
2022/06/04 11:20:43;;;;;;;17.13;15.63;;;;;;;20.40;100.00;98321.47;5133195;28;20179;-68
2022/06/04 11:23:45;;;;;;;17.33;15.90;;;;;;;20.62;98.79;98328.13;5115806;28;20194;-68
2022/06/04 11:26:18;;;;;;;17.37;15.77;;;;;;;20.58;100.00;98321.66;5133976;28;20193;-68
2022/06/04 11:28:45;;;;;;;19.07;17.27;;;;;;;20.28;100.00;98329.03;5133757;28;20237;-69
2022/06/04 11:31:29;;;;;;;18.93;17.33;;;;;;;20.02;100.00;98327.47;5133967;28;20289;-68
2022/06/04 11:34:11;;;;;;;18.93;17.43;;;;;;;20.16;100.00;98325.84;5134198;28;20281;-68
2022/06/04 11:37:11;;;;;;;17.87;16.37;;;;;;;20.26;100.00;98323.91;5134041;28;20197;-68
2022/06/04 11:40:09;;;;;;;17.67;16.07;;;;;;;20.47;100.00;98338.16;5117644;28;20306;-68
2022/06/04 11:42:59;;;;;;;17.73;16.13;;;;;;;20.49;99.79;98330.63;5134154;28;20197;-68
2022/06/04 11:45:53;;;;;;;17.97;16.67;;;;;;;20.41;100.00;98342.78;5134014;28;20199;-68
2022/06/04 11:48:39;;;;;;;17.80;16.27;;;;;;;20.62;99.33;98341.63;5115395;28;20257;-68
2022/06/04 11:51:05;;;;;;;16.00;14.70;;;;;;;20.57;100.00;98341.66;5133783;28;20210;-68